createdAt,value
2022-09-06T00:00:47.109Z,0.00
2022-09-06T00:01:47.090Z,0.00
2022-09-06T00:02:47.120Z,0.00
2022-09-06T00:03:47.118Z,0.00
2022-09-06T00:04:47.048Z,0.00
2022-09-06T00:05:47.038Z,0.00
2022-09-06T00:06:47.058Z,0.00
2022-09-06T00:07:47.021Z,0.00
2022-09-06T00:08:47.033Z,0.00
2022-09-06T00:09:47.014Z,0.00
2022-09-06T00:10:47.002Z,0.00
2022-09-06T00:11:46.991Z,0.00
2022-09-06T00:12:47.021Z,0.00
2022-09-06T00:13:46.986Z,0.00
2022-09-06T00:14:46.985Z,0.00
2022-09-06T00:15:47.002Z,0.00
2022-09-06T00:16:46.967Z,0.00
2022-09-06T00:17:46.942Z,0.00
2022-09-06T00:18:46.948Z,0.00
2022-09-06T00:19:46.935Z,0.00
2022-09-06T00:20:46.915Z,0.00
2022-09-06T00:21:46.904Z,0.00
2022-09-06T00:22:46.903Z,0.00
2022-09-06T00:23:46.901Z,0.00
2022-09-06T00:24:46.920Z,0.00
2022-09-06T00:25:46.881Z,0.00
2022-09-06T00:26:46.867Z,0.00
2022-09-06T00:27:46.856Z,0.00
2022-09-06T00:28:46.863Z,0.00
2022-09-06T00:29:46.851Z,0.00
2022-09-06T00:30:46.888Z,0.00
2022-09-06T00:31:46.834Z,0.00
2022-09-06T00:32:46.819Z,0.00
2022-09-06T00:33:46.800Z,0.00
2022-09-06T00:34:46.801Z,0.00
2022-09-06T00:35:46.796Z,0.00
2022-09-06T00:36:46.815Z,0.00
2022-09-06T00:37:46.786Z,0.00
2022-09-06T00:38:46.776Z,0.00
2022-09-06T00:39:46.830Z,0.00
2022-09-06T00:40:46.753Z,0.00
2022-09-06T00:41:46.747Z,0.00
2022-09-06T00:42:46.764Z,0.00
2022-09-06T00:43:46.714Z,0.00
2022-09-06T00:44:46.715Z,0.00
2022-09-06T00:45:46.718Z,0.00
2022-09-06T00:46:46.695Z,0.00
2022-09-06T00:47:46.699Z,0.00
2022-09-06T00:48:46.685Z,0.00
2022-09-06T00:49:46.679Z,0.00
2022-09-06T00:50:46.680Z,0.00
2022-09-06T00:51:46.647Z,0.00
2022-09-06T00:52:46.661Z,0.00
2022-09-06T00:53:46.628Z,0.00
2022-09-06T00:54:46.652Z,0.00
2022-09-06T00:55:46.618Z,0.00
2022-09-06T00:56:46.623Z,0.00
2022-09-06T00:57:46.599Z,0.00
2022-09-06T00:58:46.599Z,0.00
2022-09-06T00:59:46.581Z,0.00
2022-09-06T01:00:46.605Z,0.00
2022-09-06T01:01:46.660Z,0.00
2022-09-06T01:02:46.761Z,0.00
2022-09-06T01:03:46.550Z,0.00
2022-09-06T01:04:46.557Z,0.00
2022-09-06T01:05:46.532Z,0.00
2022-09-06T01:06:46.547Z,0.00
2022-09-06T01:07:46.536Z,0.00
2022-09-06T01:08:46.514Z,0.00
2022-09-06T01:09:46.497Z,0.00
2022-09-06T01:10:46.508Z,0.00
2022-09-06T01:11:46.483Z,0.00
2022-09-06T01:12:46.497Z,0.00
2022-09-06T01:13:46.479Z,0.00
2022-09-06T01:14:46.478Z,0.00
2022-09-06T01:15:46.489Z,0.00
2022-09-06T01:16:46.446Z,0.00
2022-09-06T01:17:46.441Z,0.00
2022-09-06T01:18:46.451Z,0.00
2022-09-06T01:19:46.422Z,0.00
2022-09-06T01:20:46.422Z,0.00
2022-09-06T01:21:46.411Z,0.00
2022-09-06T01:22:46.403Z,0.00
2022-09-06T01:23:46.395Z,0.00
2022-09-06T01:24:46.488Z,0.00
2022-09-06T01:25:46.361Z,0.00
2022-09-06T01:26:46.375Z,0.00
2022-09-06T01:27:46.359Z,0.00
2022-09-06T01:28:46.355Z,0.00
2022-09-06T01:29:46.336Z,0.00
2022-09-06T01:30:46.396Z,0.00
2022-09-06T01:31:46.313Z,0.00
2022-09-06T01:32:46.303Z,0.00
2022-09-06T01:33:46.307Z,0.00
2022-09-06T01:34:46.298Z,0.00
2022-09-06T01:35:46.288Z,0.00
2022-09-06T01:37:08.349Z,0.00
2022-09-06T01:37:46.269Z,0.00
2022-09-06T01:38:46.256Z,0.00
2022-09-06T01:39:46.265Z,0.00
2022-09-06T01:40:46.250Z,0.00
2022-09-06T01:41:46.238Z,0.00
2022-09-06T01:42:46.238Z,0.00
2022-09-06T01:43:46.221Z,0.00
2022-09-06T01:44:46.213Z,0.00
2022-09-06T01:45:46.236Z,0.00
2022-09-06T01:46:46.191Z,0.00
2022-09-06T01:47:46.171Z,0.00
2022-09-06T01:48:46.205Z,0.00
2022-09-06T01:49:46.164Z,0.00
2022-09-06T01:50:46.166Z,0.00
2022-09-06T01:51:46.154Z,0.00
2022-09-06T01:52:46.145Z,0.00
2022-09-06T01:53:46.131Z,0.00
2022-09-06T01:54:46.147Z,0.00
2022-09-06T01:55:46.116Z,0.00
2022-09-06T01:56:46.104Z,0.00
2022-09-06T01:57:46.086Z,0.00
2022-09-06T01:58:46.084Z,0.00
2022-09-06T01:59:46.074Z,0.00
2022-09-06T02:00:46.099Z,0.00
2022-09-06T02:01:46.195Z,0.00
2022-09-06T02:02:46.121Z,0.00
2022-09-06T02:03:46.051Z,0.00
2022-09-06T02:04:46.049Z,0.00
2022-09-06T02:05:46.027Z,0.00
2022-09-06T02:06:46.051Z,0.00
2022-09-06T02:07:46.021Z,0.00
2022-09-06T02:08:46.013Z,0.00
2022-09-06T02:09:46.003Z,0.00
2022-09-06T02:10:45.993Z,0.00
2022-09-06T02:11:45.983Z,0.00
2022-09-06T02:12:45.979Z,0.00
2022-09-06T02:13:45.951Z,0.00
2022-09-06T02:14:45.956Z,0.00
2022-09-06T02:15:45.932Z,0.00
2022-09-06T02:16:45.988Z,0.00
2022-09-06T02:17:45.928Z,0.00
2022-09-06T02:18:45.932Z,0.00
2022-09-06T02:19:45.915Z,0.00
2022-09-06T02:20:45.907Z,0.00
2022-09-06T02:21:45.885Z,0.00
2022-09-06T02:22:45.884Z,0.00
2022-09-06T02:23:45.883Z,0.00
2022-09-06T02:24:45.876Z,0.00
2022-09-06T02:25:45.860Z,0.00
2022-09-06T02:26:45.845Z,0.00
2022-09-06T02:27:45.850Z,0.00
2022-09-06T02:28:45.840Z,0.00
2022-09-06T02:29:45.818Z,0.00
2022-09-06T02:30:45.900Z,0.00
2022-09-06T02:31:45.812Z,0.00
2022-09-06T02:32:45.801Z,0.00
2022-09-06T02:33:45.781Z,0.00
2022-09-06T02:34:45.791Z,0.00
2022-09-06T02:35:45.759Z,0.00
2022-09-06T02:36:45.793Z,0.00
2022-09-06T02:37:45.763Z,0.00
2022-09-06T02:38:45.741Z,0.00
2022-09-06T02:39:45.785Z,0.00
2022-09-06T02:40:45.735Z,0.00
2022-09-06T02:41:45.726Z,0.00
2022-09-06T02:42:45.736Z,0.00
2022-09-06T02:43:45.705Z,0.00
2022-09-06T02:44:45.706Z,0.00
2022-09-06T02:45:45.707Z,0.00
2022-09-06T02:46:45.688Z,0.00
2022-09-06T02:47:45.666Z,0.00
2022-09-06T02:48:45.675Z,0.00
2022-09-06T02:49:45.648Z,0.00
2022-09-06T02:50:45.649Z,0.00
2022-09-06T02:51:45.625Z,0.00
2022-09-06T02:52:45.625Z,0.00
2022-09-06T02:53:45.606Z,0.00
2022-09-06T02:54:45.921Z,0.00
2022-09-06T02:55:45.594Z,0.00
2022-09-06T02:56:50.198Z,0.00
2022-09-06T02:57:45.592Z,0.00
2022-09-06T02:58:45.568Z,0.00
2022-09-06T02:59:45.579Z,0.00
2022-09-06T03:00:45.583Z,0.00
2022-09-06T03:01:45.631Z,0.00
2022-09-06T03:02:45.613Z,0.00
2022-09-06T03:03:45.532Z,0.00
2022-09-06T03:04:45.526Z,0.00
2022-09-06T03:05:45.526Z,0.00
2022-09-06T03:06:45.525Z,0.00
2022-09-06T03:07:45.506Z,0.00
2022-09-06T03:08:45.482Z,0.00
2022-09-06T03:09:45.498Z,0.00
2022-09-06T03:10:45.465Z,0.00
2022-09-06T03:11:45.466Z,0.00
2022-09-06T03:12:45.463Z,0.00
2022-09-06T03:13:45.458Z,0.00
2022-09-06T03:14:45.441Z,0.00
2022-09-06T03:15:45.435Z,0.00
2022-09-06T03:16:45.452Z,0.00
2022-09-06T03:17:45.419Z,0.00
2022-09-06T03:18:45.417Z,0.00
2022-09-06T03:19:45.397Z,0.00
2022-09-06T03:20:45.378Z,0.00
2022-09-06T03:21:45.392Z,0.00
2022-09-06T03:22:45.381Z,0.00
2022-09-06T03:23:45.372Z,0.00
2022-09-06T03:24:45.374Z,0.00
2022-09-06T03:25:45.354Z,0.00
2022-09-06T03:26:45.343Z,0.00
2022-09-06T03:27:45.320Z,0.00
2022-09-06T03:28:45.324Z,0.00
2022-09-06T03:29:45.323Z,0.00
2022-09-06T03:30:45.408Z,0.00
2022-09-06T03:31:45.292Z,0.00
2022-09-06T03:32:45.272Z,0.00
2022-09-06T03:33:45.287Z,0.00
2022-09-06T03:34:45.277Z,0.00
2022-09-06T03:35:45.268Z,0.00
2022-09-06T03:36:45.264Z,0.00
2022-09-06T03:37:45.235Z,0.00
2022-09-06T03:38:45.238Z,0.00
2022-09-06T03:39:45.281Z,0.00
2022-09-06T03:40:45.207Z,0.00
2022-09-06T03:41:45.206Z,0.00
2022-09-06T03:42:45.210Z,0.00
2022-09-06T03:43:45.187Z,0.00
2022-09-06T03:44:45.175Z,0.00
2022-09-06T03:45:45.230Z,0.00
2022-09-06T03:46:45.171Z,0.00
2022-09-06T03:47:45.168Z,0.00
2022-09-06T03:48:45.148Z,0.00
2022-09-06T03:49:45.153Z,0.00
2022-09-06T03:50:45.119Z,0.00
2022-09-06T03:51:45.133Z,0.00
2022-09-06T03:52:45.108Z,0.00
2022-09-06T03:53:45.100Z,0.00
2022-09-06T03:54:45.125Z,0.00
2022-09-06T03:55:45.083Z,0.00
2022-09-06T03:56:45.085Z,0.00
2022-09-06T03:57:45.070Z,0.00
2022-09-06T03:58:45.067Z,0.00
2022-09-06T03:59:45.066Z,0.00
2022-09-06T04:00:45.231Z,0.00
2022-09-06T04:01:45.091Z,0.00
2022-09-06T04:02:45.129Z,0.00
2022-09-06T04:03:45.028Z,0.00
2022-09-06T04:04:45.019Z,0.00
2022-09-06T04:05:45.025Z,0.00
2022-09-06T04:06:45.006Z,0.00
2022-09-06T04:07:44.989Z,0.00
2022-09-06T04:08:44.976Z,0.00
2022-09-06T04:09:44.981Z,0.00
2022-09-06T04:10:44.947Z,0.00
2022-09-06T04:11:45.260Z,0.00
2022-09-06T04:12:44.969Z,0.00
2022-09-06T04:13:44.953Z,0.00
2022-09-06T04:14:44.919Z,0.00
2022-09-06T04:15:44.930Z,0.00
2022-09-06T04:16:44.969Z,0.00
2022-09-06T04:17:44.900Z,0.00
2022-09-06T04:18:44.914Z,0.00
2022-09-06T04:19:44.896Z,0.00
2022-09-06T04:20:44.884Z,0.00
2022-09-06T04:21:44.862Z,0.00
2022-09-06T04:22:44.853Z,0.00
2022-09-06T04:23:44.864Z,0.00
2022-09-06T04:24:44.857Z,0.00
2022-09-06T04:25:44.846Z,0.00
2022-09-06T04:26:44.814Z,0.00
2022-09-06T04:27:44.827Z,0.00
2022-09-06T04:28:44.806Z,0.00
2022-09-06T04:29:44.797Z,0.00
2022-09-06T04:30:44.805Z,0.00
2022-09-06T04:31:44.824Z,0.00
2022-09-06T04:32:44.769Z,0.00
2022-09-06T04:33:44.758Z,0.00
2022-09-06T04:34:44.750Z,0.00
2022-09-06T04:35:44.761Z,0.00
2022-09-06T04:36:48.344Z,4.00
2022-09-06T04:37:44.730Z,0.00
2022-09-06T04:38:44.736Z,4.00
2022-09-06T04:39:44.760Z,4.00
2022-09-06T04:40:44.698Z,4.00
2022-09-06T04:41:44.690Z,4.00
2022-09-06T04:42:44.700Z,4.00
2022-09-06T04:43:44.693Z,4.00
2022-09-06T04:44:44.675Z,8.00
2022-09-06T04:45:44.733Z,4.00
2022-09-06T04:46:44.656Z,8.00
2022-09-06T04:47:44.643Z,12.00
2022-09-06T04:48:44.652Z,12.00
2022-09-06T04:49:44.625Z,12.00
2022-09-06T04:50:44.612Z,12.00
2022-09-06T04:51:44.625Z,12.00
2022-09-06T04:52:44.594Z,12.00
2022-09-06T04:53:44.586Z,12.00
2022-09-06T04:54:44.605Z,12.00
2022-09-06T04:55:44.578Z,16.00
2022-09-06T04:56:44.577Z,24.00
2022-09-06T04:57:47.457Z,28.00
2022-09-06T04:58:44.547Z,32.00
2022-09-06T04:59:44.556Z,36.00
2022-09-06T05:00:44.639Z,32.00
2022-09-06T05:01:44.533Z,36.00
2022-09-06T05:02:44.546Z,28.00
2022-09-06T05:03:44.521Z,32.00
2022-09-06T05:04:44.503Z,36.00
2022-09-06T05:05:44.490Z,36.00
2022-09-06T05:06:44.489Z,36.00
2022-09-06T05:07:44.471Z,44.00
2022-09-06T05:08:44.461Z,44.00
2022-09-06T05:09:44.452Z,52.00
2022-09-06T05:10:44.456Z,56.00
2022-09-06T05:11:44.443Z,68.00
2022-09-06T05:12:44.555Z,76.00
2022-09-06T05:13:44.426Z,72.00
2022-09-06T05:14:44.404Z,88.00
2022-09-06T05:15:44.405Z,96.00
2022-09-06T05:16:44.431Z,116.00
2022-09-06T05:17:44.386Z,140.00
2022-09-06T05:18:44.413Z,156.00
2022-09-06T05:19:44.367Z,152.00
2022-09-06T05:20:44.357Z,148.00
2022-09-06T05:21:44.367Z,172.00
2022-09-06T05:22:44.337Z,212.00
2022-09-06T05:23:44.337Z,256.00
2022-09-06T05:24:44.362Z,268.00
2022-09-06T05:25:44.319Z,284.00
2022-09-06T05:26:44.307Z,264.00
2022-09-06T05:27:44.300Z,252.00
2022-09-06T05:28:44.302Z,268.00
2022-09-06T05:29:44.289Z,304.00
2022-09-06T05:30:44.280Z,284.00
2022-09-06T05:31:44.373Z,292.00
2022-09-06T05:32:44.253Z,336.00
2022-09-06T05:33:44.252Z,408.00
2022-09-06T05:34:44.243Z,472.00
2022-09-06T05:35:44.232Z,516.00
2022-09-06T05:36:44.252Z,540.00
2022-09-06T05:37:44.213Z,568.00
2022-09-06T05:38:44.217Z,584.00
2022-09-06T05:39:44.246Z,608.00
2022-09-06T05:40:44.197Z,656.00
2022-09-06T05:41:44.185Z,736.00
2022-09-06T05:42:44.206Z,816.00
2022-09-06T05:43:44.179Z,836.00
2022-09-06T05:44:44.156Z,868.00
2022-09-06T05:45:44.203Z,952.00
2022-09-06T05:46:44.151Z,1060.00
2022-09-06T05:47:44.157Z,1180.00
2022-09-06T05:48:44.130Z,1248.00
2022-09-06T05:49:44.130Z,1272.00
2022-09-06T05:50:44.118Z,1340.00
2022-09-06T05:51:44.099Z,1432.00
2022-09-06T05:52:44.088Z,1464.00
2022-09-06T05:53:44.093Z,1516.00
2022-09-06T05:54:44.079Z,1648.00
2022-09-06T05:55:44.074Z,1780.00
2022-09-06T05:56:44.065Z,1860.00
2022-09-06T05:57:44.041Z,1844.00
2022-09-06T05:58:44.031Z,1852.00
2022-09-06T05:59:44.032Z,1884.00
2022-09-06T06:00:44.065Z,1940.00
2022-09-06T06:01:44.130Z,1984.00
2022-09-06T06:02:44.061Z,1980.00
2022-09-06T06:03:43.994Z,1984.00
2022-09-06T06:04:43.983Z,2008.00
2022-09-06T06:05:43.998Z,2032.00
2022-09-06T06:06:43.998Z,2052.00
2022-09-06T06:07:43.963Z,2068.00
2022-09-06T06:08:43.945Z,2084.00
2022-09-06T06:09:43.949Z,2072.00
2022-09-06T06:10:43.940Z,2084.00
2022-09-06T06:11:43.932Z,2080.00
2022-09-06T06:12:43.927Z,2064.00
2022-09-06T06:13:43.909Z,2036.00
2022-09-06T06:14:43.911Z,2016.00
2022-09-06T06:15:43.909Z,1980.00
2022-09-06T06:16:43.964Z,1928.00
2022-09-06T06:17:43.892Z,1868.00
2022-09-06T06:18:45.205Z,1816.00
2022-09-06T06:19:43.873Z,1828.00
2022-09-06T06:20:43.840Z,1828.00
2022-09-06T06:21:43.854Z,1836.00
2022-09-06T06:22:43.830Z,1924.00
2022-09-06T06:23:43.822Z,2064.00
2022-09-06T06:24:43.836Z,2192.00
2022-09-06T06:25:43.824Z,2304.00
2022-09-06T06:26:43.806Z,2412.00
2022-09-06T06:27:43.805Z,2492.00
2022-09-06T06:28:43.775Z,2552.00
2022-09-06T06:29:43.790Z,2584.00
2022-09-06T06:30:43.789Z,2632.00
2022-09-06T06:31:43.811Z,2632.00
2022-09-06T06:32:43.759Z,2596.00
2022-09-06T06:33:43.757Z,2572.00
2022-09-06T06:34:43.740Z,2616.00
2022-09-06T06:35:43.731Z,2736.00
2022-09-06T06:36:43.740Z,2832.00
2022-09-06T06:37:43.707Z,2892.00
2022-09-06T06:38:43.730Z,2912.00
2022-09-06T06:39:43.744Z,3004.00
2022-09-06T06:40:43.682Z,3100.00
2022-09-06T06:41:43.671Z,3216.00
2022-09-06T06:42:43.679Z,3500.00
2022-09-06T06:43:43.664Z,3656.00
2022-09-06T06:44:43.653Z,3612.00
2022-09-06T06:45:43.713Z,3524.00
2022-09-06T06:46:43.634Z,3328.00
2022-09-06T06:47:43.636Z,3020.00
2022-09-06T06:48:43.630Z,2748.00
2022-09-06T06:49:43.601Z,2756.00
2022-09-06T06:50:43.587Z,2792.00
2022-09-06T06:51:43.584Z,2992.00
2022-09-06T06:52:43.573Z,3160.00
2022-09-06T06:53:43.566Z,2984.00
2022-09-06T06:54:43.592Z,3024.00
2022-09-06T06:55:43.565Z,3024.00
2022-09-06T06:56:43.548Z,3100.00
2022-09-06T06:57:43.547Z,3604.00
2022-09-06T06:58:43.516Z,3536.00
2022-09-06T06:59:43.519Z,3660.00
2022-09-06T07:00:43.626Z,3992.00
2022-09-06T07:01:43.651Z,4928.00
2022-09-06T07:02:43.499Z,7164.00
2022-09-06T07:03:43.488Z,8496.00
2022-09-06T07:04:43.482Z,7856.00
2022-09-06T07:07:43.451Z,4520.00
2022-09-06T07:08:43.443Z,4756.00
2022-09-06T07:10:43.419Z,7464.00
2022-09-06T07:11:43.411Z,6476.00
2022-09-06T07:12:43.422Z,6400.00
2022-09-06T07:13:43.405Z,5220.00
2022-09-06T07:14:43.393Z,10384.00
2022-09-06T07:15:43.386Z,9088.00
2022-09-06T07:16:43.468Z,3448.00
2022-09-06T07:17:43.354Z,3792.00
2022-09-06T07:18:43.363Z,7876.00
2022-09-06T07:21:43.325Z,7396.00
2022-09-06T07:22:43.329Z,7536.00
2022-09-06T07:24:43.317Z,5848.00
2022-09-06T07:25:43.287Z,6556.00
2022-09-06T07:27:46.368Z,6068.00
2022-09-06T07:28:43.268Z,6120.00
2022-09-06T07:29:43.257Z,6024.00
2022-09-06T07:30:43.259Z,6032.00
2022-09-06T07:32:43.243Z,6024.00
2022-09-06T07:33:43.221Z,6032.00
2022-09-06T07:34:43.210Z,6096.00
2022-09-06T07:35:43.214Z,6076.00
2022-09-06T07:36:43.212Z,5968.00
2022-09-06T07:37:43.192Z,5644.00
2022-09-06T07:38:43.183Z,5684.00
2022-09-06T07:39:43.274Z,6200.00
2022-09-06T07:40:43.177Z,6252.00
2022-09-06T07:41:43.177Z,6316.00
2022-09-06T07:42:43.154Z,6360.00
2022-09-06T07:43:43.151Z,6388.00
2022-09-06T07:44:43.125Z,6480.00
2022-09-06T07:45:43.115Z,6468.00
2022-09-06T07:46:43.233Z,6576.00
2022-09-06T07:47:58.882Z,6612.00
2022-09-06T07:48:43.131Z,6580.00
2022-09-06T07:51:43.072Z,6444.00
2022-09-06T07:53:43.065Z,6560.00
2022-09-06T07:54:43.071Z,6600.00
2022-09-06T07:55:43.046Z,6708.00
2022-09-06T07:56:43.031Z,6776.00
2022-09-06T07:57:43.012Z,4804.00
2022-09-06T07:58:43.010Z,5032.00
2022-09-06T07:59:43.146Z,5592.00
2022-09-06T08:00:43.053Z,7972.00
2022-09-06T08:01:43.056Z,8420.00
2022-09-06T08:02:42.973Z,7772.00
2022-09-06T08:03:42.963Z,5896.00
2022-09-06T08:04:42.964Z,4984.00
2022-09-06T08:07:42.940Z,6144.00
2022-09-06T08:08:58.918Z,6148.00
2022-09-06T08:09:42.915Z,5892.00
2022-09-06T08:10:42.906Z,5156.00
2022-09-06T08:11:42.910Z,5176.00
2022-09-06T08:12:42.930Z,4852.00
2022-09-06T08:13:42.892Z,4672.00
2022-09-06T08:14:42.891Z,4708.00
2022-09-06T08:15:42.858Z,4784.00
2022-09-06T08:16:42.914Z,5032.00
2022-09-06T08:17:42.839Z,4840.00
2022-09-06T08:18:42.862Z,4724.00
2022-09-06T08:19:42.828Z,4460.00
2022-09-06T08:20:42.834Z,4268.00
2022-09-06T08:21:42.838Z,4112.00
2022-09-06T08:22:42.835Z,3896.00
2022-09-06T08:23:42.795Z,4724.00
2022-09-06T08:24:42.811Z,7596.00
2022-09-06T08:25:42.776Z,7892.00
2022-09-06T08:26:42.786Z,7944.00
2022-09-06T08:27:42.767Z,7996.00
2022-09-06T08:28:42.779Z,7284.00
2022-09-06T08:29:42.779Z,5020.00
2022-09-06T08:30:42.798Z,5352.00
2022-09-06T08:31:42.848Z,8312.00
2022-09-06T08:32:42.729Z,7044.00
2022-09-06T08:33:42.708Z,8080.00
2022-09-06T08:34:42.710Z,7804.00
2022-09-06T08:35:42.688Z,8428.00
2022-09-06T08:36:42.711Z,6628.00
2022-09-06T08:37:42.690Z,5080.00
2022-09-06T08:38:42.757Z,4076.00
2022-09-06T08:39:42.712Z,3300.00
2022-09-06T08:40:42.651Z,2756.00
2022-09-06T08:41:42.655Z,2420.00
2022-09-06T08:42:42.651Z,2192.00
2022-09-06T08:43:42.634Z,2076.00
2022-09-06T08:44:58.442Z,2036.00
2022-09-06T08:45:42.616Z,2028.00
2022-09-06T08:46:42.712Z,1940.00
2022-09-06T08:47:42.605Z,1796.00
2022-09-06T08:48:42.605Z,1644.00
2022-09-06T08:49:42.572Z,1508.00
2022-09-06T08:50:42.571Z,1432.00
2022-09-06T08:51:42.554Z,1448.00
2022-09-06T08:52:54.430Z,1540.00
2022-09-06T08:53:42.546Z,1688.00
2022-09-06T08:54:42.567Z,1720.00
2022-09-06T08:55:42.516Z,1736.00
2022-09-06T08:56:42.516Z,1748.00
2022-09-06T08:57:42.498Z,1732.00
2022-09-06T08:58:42.497Z,1680.00
2022-09-06T08:59:42.487Z,1668.00
2022-09-06T09:00:42.547Z,1644.00
2022-09-06T09:01:42.500Z,1576.00
2022-09-06T09:02:42.469Z,1472.00
2022-09-06T09:03:42.548Z,1368.00
2022-09-06T09:04:42.462Z,1276.00
2022-09-06T09:05:42.435Z,1192.00
2022-09-06T09:06:42.450Z,1132.00
2022-09-06T09:07:42.413Z,1076.00
2022-09-06T09:08:42.426Z,1024.00
2022-09-06T09:09:42.406Z,976.00
2022-09-06T09:10:42.407Z,932.00
2022-09-06T09:11:42.383Z,888.00
2022-09-06T09:12:42.394Z,860.00
2022-09-06T09:13:42.364Z,836.00
2022-09-06T09:14:42.378Z,804.00
2022-09-06T09:15:42.346Z,780.00
2022-09-06T09:16:42.393Z,748.00
2022-09-06T09:17:42.325Z,728.00
2022-09-06T09:18:42.348Z,708.00
2022-09-06T09:19:42.316Z,692.00
2022-09-06T09:20:42.308Z,684.00
2022-09-06T09:21:42.311Z,676.00
2022-09-06T09:22:42.302Z,680.00
2022-09-06T09:23:42.293Z,688.00
2022-09-06T09:24:42.288Z,692.00
2022-09-06T09:25:42.274Z,692.00
2022-09-06T09:26:42.272Z,680.00
2022-09-06T09:27:42.256Z,664.00
2022-09-06T09:28:42.240Z,652.00
2022-09-06T09:30:49.852Z,612.00
2022-09-06T09:31:42.240Z,600.00
2022-09-06T09:32:42.217Z,596.00
2022-09-06T09:33:42.193Z,604.00
2022-09-06T09:34:42.192Z,616.00
2022-09-06T09:35:42.191Z,636.00
2022-09-06T09:38:42.157Z,736.00
2022-09-06T09:39:42.175Z,768.00
2022-09-06T09:40:42.150Z,800.00
2022-09-06T09:41:42.142Z,836.00
2022-09-06T09:42:42.126Z,880.00
2022-09-06T09:43:42.108Z,940.00
2022-09-06T09:44:42.105Z,1032.00
2022-09-06T09:45:42.088Z,1140.00
2022-09-06T09:46:42.171Z,1256.00
2022-09-06T09:47:42.083Z,1368.00
2022-09-06T09:48:42.093Z,1484.00
2022-09-06T09:49:42.063Z,1596.00
2022-09-06T09:50:42.064Z,1712.00
2022-09-06T09:51:42.056Z,1820.00
2022-09-06T09:52:42.045Z,1876.00
2022-09-06T09:53:42.036Z,1884.00
2022-09-06T09:54:42.034Z,1832.00
2022-09-06T09:55:42.016Z,1748.00
2022-09-06T09:56:42.003Z,1620.00
2022-09-06T09:57:41.990Z,1460.00
2022-09-06T09:58:41.997Z,1284.00
2022-09-06T09:59:41.972Z,1140.00
2022-09-06T10:00:42.000Z,1056.00
2022-09-06T10:01:41.952Z,1032.00
2022-09-06T10:02:41.961Z,1000.00
2022-09-06T10:05:41.916Z,1012.00
2022-09-06T10:07:41.903Z,1076.00
2022-09-06T10:08:41.898Z,1076.00
2022-09-06T10:09:41.896Z,1068.00
2022-09-06T10:10:41.893Z,1084.00
2022-09-06T10:11:41.868Z,1112.00
2022-09-06T10:12:41.893Z,1132.00
2022-09-06T10:13:41.871Z,1148.00
2022-09-06T10:14:41.841Z,1176.00
2022-09-06T10:15:41.867Z,1212.00
2022-09-06T10:16:41.843Z,1248.00
2022-09-06T10:17:41.825Z,1308.00
2022-09-06T10:18:41.940Z,1428.00
2022-09-06T10:19:41.795Z,1580.00
2022-09-06T10:20:41.793Z,1748.00
2022-09-06T10:21:41.787Z,1928.00
2022-09-06T10:22:41.787Z,2144.00
2022-09-06T10:24:41.778Z,2540.00
2022-09-06T10:25:43.957Z,2696.00
2022-09-06T10:26:41.737Z,2920.00
2022-09-06T10:27:55.525Z,3184.00
2022-09-06T10:28:41.738Z,3348.00
2022-09-06T10:29:41.707Z,3536.00
2022-09-06T10:30:41.731Z,3672.00
2022-09-06T10:31:41.734Z,3744.00
2022-09-06T10:32:41.692Z,3820.00
2022-09-06T10:33:41.677Z,3828.00
2022-09-06T10:34:41.670Z,3772.00
2022-09-06T10:35:41.660Z,3772.00
2022-09-06T10:36:41.678Z,3848.00
2022-09-06T10:37:41.654Z,3900.00
2022-09-06T10:38:41.640Z,3916.00
2022-09-06T10:39:41.686Z,3904.00
2022-09-06T10:40:41.635Z,3932.00
2022-09-06T10:41:41.616Z,4000.00
2022-09-06T10:42:41.634Z,4032.00
2022-09-06T10:43:41.607Z,4008.00
2022-09-06T10:44:41.583Z,4028.00
2022-09-06T10:45:41.589Z,4096.00
2022-09-06T10:46:41.649Z,4264.00
2022-09-06T10:47:41.568Z,4428.00
2022-09-06T10:48:41.575Z,4580.00
2022-09-06T10:49:41.536Z,4744.00
2022-09-06T10:50:41.536Z,5012.00
2022-09-06T10:51:41.529Z,5504.00
2022-09-06T10:52:41.518Z,5508.00
2022-09-06T10:53:41.521Z,5944.00
2022-09-06T10:54:41.641Z,6104.00
2022-09-06T10:55:41.502Z,6032.00
2022-09-06T10:56:41.492Z,6096.00
2022-09-06T10:59:41.514Z,5876.00
2022-09-06T11:00:41.461Z,5608.00
2022-09-06T11:01:41.549Z,5384.00
2022-09-06T11:02:41.618Z,5200.00
2022-09-06T11:04:00.171Z,5960.00
2022-09-06T11:05:41.418Z,4852.00
2022-09-06T11:06:41.412Z,4748.00
2022-09-06T11:07:41.468Z,4772.00
2022-09-06T11:08:49.100Z,4700.00
2022-09-06T11:09:41.378Z,4768.00
2022-09-06T11:10:41.379Z,4940.00
2022-09-06T11:11:41.359Z,4964.00
2022-09-06T11:12:41.355Z,4888.00
2022-09-06T11:13:41.350Z,4580.00
2022-09-06T11:14:41.330Z,4764.00
2022-09-06T11:15:41.386Z,4452.00
2022-09-06T11:16:41.323Z,4548.00
2022-09-06T11:17:41.298Z,4784.00
2022-09-06T11:18:41.317Z,5100.00
2022-09-06T11:19:41.279Z,5144.00
2022-09-06T11:20:41.292Z,5332.00
2022-09-06T11:21:41.260Z,5932.00
2022-09-06T11:22:41.262Z,5424.00
2022-09-06T11:23:41.254Z,6028.00
2022-09-06T11:24:41.251Z,6076.00
2022-09-06T11:25:41.244Z,6012.00
2022-09-06T11:26:41.232Z,5736.00
2022-09-06T11:27:41.220Z,5400.00
2022-09-06T11:28:41.225Z,4960.00
2022-09-06T11:29:41.206Z,4724.00
2022-09-06T11:30:41.265Z,4324.00
2022-09-06T11:32:41.175Z,3784.00
2022-09-06T11:33:41.179Z,3584.00
2022-09-06T11:34:41.177Z,3572.00
2022-09-06T11:35:41.167Z,3368.00
2022-09-06T11:36:41.161Z,3400.00
2022-09-06T11:37:41.151Z,3028.00
2022-09-06T11:38:41.127Z,2960.00
2022-09-06T11:40:41.108Z,2880.00
2022-09-06T11:41:41.112Z,2916.00
2022-09-06T11:42:41.101Z,2936.00
2022-09-06T11:43:41.091Z,3012.00
2022-09-06T11:44:41.070Z,3156.00
2022-09-06T11:45:41.071Z,3316.00
2022-09-06T11:46:41.137Z,3496.00
2022-09-06T11:47:41.067Z,3672.00
2022-09-06T11:48:41.065Z,3784.00
2022-09-06T11:49:41.046Z,3844.00
2022-09-06T11:50:41.036Z,3832.00
2022-09-06T11:51:41.035Z,3756.00
2022-09-06T11:52:41.017Z,3680.00
2022-09-06T11:53:41.015Z,3596.00
2022-09-06T11:54:41.011Z,3520.00
2022-09-06T11:55:40.998Z,3440.00
2022-09-06T11:56:40.988Z,3364.00
2022-09-06T11:57:40.966Z,3312.00
2022-09-06T11:58:40.955Z,3276.00
2022-09-06T11:59:40.969Z,3240.00
2022-09-06T12:00:40.947Z,3200.00
2022-09-06T12:01:40.994Z,3164.00
2022-09-06T12:02:41.169Z,3116.00
2022-09-06T12:04:40.907Z,2952.00
2022-09-06T12:05:40.912Z,2872.00
2022-09-06T12:06:41.029Z,2800.00
2022-09-06T12:07:40.901Z,2724.00
2022-09-06T12:08:40.887Z,2648.00
2022-09-06T12:09:40.862Z,2584.00
2022-09-06T12:10:40.869Z,2524.00
2022-09-06T12:11:40.865Z,2476.00
2022-09-06T12:12:40.853Z,2428.00
2022-09-06T12:13:40.847Z,2388.00
2022-09-06T12:14:40.836Z,2340.00
2022-09-06T12:15:40.848Z,2280.00
2022-09-06T12:16:40.804Z,2216.00
2022-09-06T12:17:40.796Z,2164.00
2022-09-06T12:18:40.794Z,2092.00
2022-09-06T12:19:44.065Z,2016.00
2022-09-06T12:20:40.766Z,1936.00
2022-09-06T12:21:40.764Z,1852.00
2022-09-06T12:22:40.760Z,1756.00
2022-09-06T12:23:40.760Z,1668.00
2022-09-06T12:24:40.837Z,1596.00
2022-09-06T12:25:40.727Z,1532.00
2022-09-06T12:26:40.719Z,1468.00
2022-09-06T12:27:40.724Z,1416.00
2022-09-06T12:28:40.713Z,1364.00
2022-09-06T12:29:40.701Z,1320.00
2022-09-06T12:30:40.705Z,1280.00
2022-09-06T12:31:40.717Z,1240.00
2022-09-06T12:32:40.661Z,1204.00
2022-09-06T12:33:40.677Z,1160.00
2022-09-06T12:34:40.666Z,1124.00
2022-09-06T12:36:40.668Z,1044.00
2022-09-06T12:37:40.624Z,1004.00
2022-09-06T12:38:40.616Z,960.00
2022-09-06T12:39:40.633Z,916.00
2022-09-06T12:40:40.608Z,872.00
2022-09-06T12:41:43.476Z,832.00
2022-09-06T12:42:40.601Z,792.00
2022-09-06T12:43:40.576Z,764.00
2022-09-06T12:44:40.581Z,732.00
2022-09-06T12:45:40.557Z,712.00
2022-09-06T12:46:40.582Z,704.00
2022-09-06T12:47:40.540Z,700.00
2022-09-06T12:48:40.552Z,696.00
2022-09-06T12:49:40.522Z,696.00
2022-09-06T12:50:40.510Z,700.00
2022-09-06T12:51:40.511Z,704.00
2022-09-06T12:52:40.490Z,708.00
2022-09-06T12:53:40.509Z,720.00
2022-09-06T12:54:40.493Z,740.00
2022-09-06T12:55:40.473Z,768.00
2022-09-06T12:56:40.462Z,800.00
2022-09-06T12:57:40.466Z,832.00
2022-09-06T12:58:40.443Z,876.00
2022-09-06T12:59:40.443Z,924.00
2022-09-06T13:00:40.459Z,964.00
2022-09-06T13:01:40.521Z,1000.00
2022-09-06T13:02:40.476Z,1036.00
2022-09-06T13:03:40.405Z,1072.00